sensor_id;sensor_type;location;lat;lon;timestamp;pressure;altitude;pressure_sealevel;temperature;humidity
64402;BME280;50724;42.376;23.768;2023-11-19T00:00:24;92961.34;;;1.61;99.60
64402;BME280;50724;42.376;23.768;2023-11-19T00:03:24;92965.69;;;1.61;99.20
64402;BME280;50724;42.376;23.768;2023-11-19T00:06:25;92967.78;;;1.56;100.00
64402;BME280;50724;42.376;23.768;2023-11-19T00:09:35;92977.03;;;1.58;100.00
64402;BME280;50724;42.376;23.768;2023-11-19T00:12:44;92979.63;;;1.58;99.80
64402;BME280;50724;42.376;23.768;2023-11-19T00:15:45;92976.00;;;1.61;100.00
64402;BME280;50724;42.376;23.768;2023-11-19T00:18:47;92970.72;;;1.62;100.00
64402;BME280;50724;42.376;23.768;2023-11-19T00:21:48;92970.25;;;1.57;100.00
64402;BME280;50724;42.376;23.768;2023-11-19T00:24:48;92978.78;;;1.58;100.00
64402;BME280;50724;42.376;23.768;2023-11-19T00:27:49;92980.81;;;1.54;100.00
64402;BME280;50724;42.376;23.768;2023-11-19T00:30:50;92980.91;;;1.53;100.00
64402;BME280;50724;42.376;23.768;2023-11-19T00:33:51;92991.47;;;1.50;100.00
64402;BME280;50724;42.376;23.768;2023-11-19T00:36:52;92987.84;;;1.52;100.00
64402;BME280;50724;42.376;23.768;2023-11-19T00:39:52;92984.31;;;1.53;100.00
64402;BME280;50724;42.376;23.768;2023-11-19T00:43:01;92981.84;;;1.52;100.00
64402;BME280;50724;42.376;23.768;2023-11-19T00:46:01;92988.53;;;1.54;100.00
64402;BME280;50724;42.376;23.768;2023-11-19T00:49:03;92986.41;;;1.48;100.00
64402;BME280;50724;42.376;23.768;2023-11-19T00:52:03;92995.91;;;1.48;100.00
64402;BME280;50724;42.376;23.768;2023-11-19T00:55:12;92988.41;;;1.45;100.00
64402;BME280;50724;42.376;23.768;2023-11-19T00:58:13;92991.19;;;1.42;100.00
64402;BME280;50724;42.376;23.768;2023-11-19T01:01:14;92988.63;;;1.42;100.00
64402;BME280;50724;42.376;23.768;2023-11-19T01:04:14;92981.03;;;1.40;100.00
64402;BME280;50724;42.376;23.768;2023-11-19T01:07:15;92987.00;;;1.41;100.00
64402;BME280;50724;42.376;23.768;2023-11-19T01:10:16;92985.22;;;1.41;100.00
64402;BME280;50724;42.376;23.768;2023-11-19T01:13:18;92980.41;;;1.36;100.00
64402;BME280;50724;42.376;23.768;2023-11-19T01:16:19;92983.94;;;1.35;100.00
64402;BME280;50724;42.376;23.768;2023-11-19T01:19:24;92978.78;;;1.35;100.00
64402;BME280;50724;42.376;23.768;2023-11-19T01:22:24;92988.41;;;1.33;100.00
64402;BME280;50724;42.376;23.768;2023-11-19T01:25:25;92983.69;;;1.38;100.00
64402;BME280;50724;42.376;23.768;2023-11-19T01:28:25;93000.47;;;1.44;100.00
64402;BME280;50724;42.376;23.768;2023-11-19T01:31:25;92994.47;;;1.44;100.00
64402;BME280;50724;42.376;23.768;2023-11-19T01:34:26;92996.72;;;1.48;100.00
64402;BME280;50724;42.376;23.768;2023-11-19T01:37:26;93017.94;;;1.52;100.00
64402;BME280;50724;42.376;23.768;2023-11-19T01:40:27;93012.06;;;1.50;100.00
64402;BME280;50724;42.376;23.768;2023-11-19T01:43:38;92981.84;;;1.52;100.00
64402;BME280;50724;42.376;23.768;2023-11-19T01:46:44;92996.72;;;1.48;100.00
64402;BME280;50724;42.376;23.768;2023-11-19T01:49:45;93000.09;;;1.49;100.00
64402;BME280;50724;42.376;23.768;2023-11-19T01:52:46;92995.56;;;1.52;100.00
64402;BME280;50724;42.376;23.768;2023-11-19T01:55:47;93005.25;;;1.49;100.00
64402;BME280;50724;42.376;23.768;2023-11-19T01:58:48;93003.63;;;1.48;100.00
64402;BME280;50724;42.376;23.768;2023-11-19T02:01:50;93004.56;;;1.47;100.00
64402;BME280;50724;42.376;23.768;2023-11-19T02:04:52;93001.75;;;1.50;99.73
64402;BME280;50724;42.376;23.768;2023-11-19T02:07:52;93004.22;;;1.51;99.37
64402;BME280;50724;42.376;23.768;2023-11-19T02:10:53;93007.00;;;1.48;99.85
64402;BME280;50724;42.376;23.768;2023-11-19T02:13:57;92995.09;;;1.47;99.58
64402;BME280;50724;42.376;23.768;2023-11-19T02:16:58;93006.09;;;1.49;100.00
64402;BME280;50724;42.376;23.768;2023-11-19T02:19:58;93001.63;;;1.51;99.76
64402;BME280;50724;42.376;23.768;2023-11-19T02:22:58;93002.56;;;1.50;99.74
64402;BME280;50724;42.376;23.768;2023-11-19T02:29:02;92996.72;;;1.48;100.00
64402;BME280;50724;42.376;23.768;2023-11-19T02:32:03;92995.44;;;1.43;100.00
64402;BME280;50724;42.376;23.768;2023-11-19T02:35:04;92990.28;;;1.43;100.00
64402;BME280;50724;42.376;23.768;2023-11-19T02:38:04;93002.56;;;1.39;100.00
64402;BME280;50724;42.376;23.768;2023-11-19T02:41:07;93004.78;;;1.32;100.00
64402;BME280;50724;42.376;23.768;2023-11-19T02:44:07;93004.66;;;1.34;100.00
64402;BME280;50724;42.376;23.768;2023-11-19T02:47:08;93001.16;;;1.35;100.00
64402;BME280;50724;42.376;23.768;2023-11-19T02:50:11;92998.69;;;1.33;100.00
64402;BME280;50724;42.376;23.768;2023-11-19T02:53:15;92989.91;;;1.36;100.00
64402;BME280;50724;42.376;23.768;2023-11-19T02:56:16;92985.00;;;1.33;100.00
64402;BME280;50724;42.376;23.768;2023-11-19T02:59:25;92977.72;;;1.27;100.00
64402;BME280;50724;42.376;23.768;2023-11-19T03:02:40;92980.41;;;1.25;100.00
64402;BME280;50724;42.376;23.768;2023-11-19T03:05:53;92989.66;;;1.28;100.00
64402;BME280;50724;42.376;23.768;2023-11-19T03:08:54;92991.53;;;1.26;100.00
64402;BME280;50724;42.376;23.768;2023-11-19T03:11:55;92985.22;;;1.30;100.00
64402;BME280;50724;42.376;23.768;2023-11-19T03:14:55;92998.22;;;1.28;100.00
64402;BME280;50724;42.376;23.768;2023-11-19T03:17:56;92975.25;;;1.25;100.00
64402;BME280;50724;42.376;23.768;2023-11-19T03:20:56;92986.88;;;1.31;99.88
64402;BME280;50724;42.376;23.768;2023-11-19T03:23:58;92997.41;;;1.28;99.86
64402;BME280;50724;42.376;23.768;2023-11-19T03:27:02;92994.00;;;1.27;99.99
64402;BME280;50724;42.376;23.768;2023-11-19T03:30:10;92978.75;;;1.24;99.97
64402;BME280;50724;42.376;23.768;2023-11-19T03:33:11;92993.41;;;1.24;100.00
64402;BME280;50724;42.376;23.768;2023-11-19T03:36:11;93002.66;;;1.26;100.00
64402;BME280;50724;42.376;23.768;2023-11-19T03:39:13;93003.47;;;1.27;99.54
64402;BME280;50724;42.376;23.768;2023-11-19T03:42:13;93012.38;;;1.23;99.80
64402;BME280;50724;42.376;23.768;2023-11-19T03:45:14;93008.16;;;1.22;99.74
64402;BME280;50724;42.376;23.768;2023-11-19T03:48:16;93018.69;;;1.19;100.00
64402;BME280;50724;42.376;23.768;2023-11-19T03:51:16;93000.28;;;1.12;100.00
64402;BME280;50724;42.376;23.768;2023-11-19T03:54:17;93004.13;;;1.07;100.00
64402;BME280;50724;42.376;23.768;2023-11-19T03:57:18;93009.75;;;1.01;100.00
64402;BME280;50724;42.376;23.768;2023-11-19T04:00:19;92992.28;;;0.93;100.00
64402;BME280;50724;42.376;23.768;2023-11-19T04:03:21;92995.97;;;0.89;100.00
64402;BME280;50724;42.376;23.768;2023-11-19T04:06:30;92993.88;;;0.83;100.00
64402;BME280;50724;42.376;23.768;2023-11-19T04:09:31;93007.66;;;0.82;100.00
64402;BME280;50724;42.376;23.768;2023-11-19T04:12:33;93016.53;;;0.78;100.00
64402;BME280;50724;42.376;23.768;2023-11-19T04:15:33;93026.00;;;0.78;100.00
64402;BME280;50724;42.376;23.768;2023-11-19T04:18:34;93034.78;;;0.75;100.00
64402;BME280;50724;42.376;23.768;2023-11-19T04:21:34;93031.91;;;0.80;100.00
64402;BME280;50724;42.376;23.768;2023-11-19T04:24:35;93026.84;;;0.78;100.00
64402;BME280;50724;42.376;23.768;2023-11-19T04:27:35;93026.25;;;0.75;100.00
64402;BME280;50724;42.376;23.768;2023-11-19T04:30:36;93022.63;;;0.77;100.00
64402;BME280;50724;42.376;23.768;2023-11-19T04:33:37;93012.00;;;0.82;100.00
64402;BME280;50724;42.376;23.768;2023-11-19T04:36:38;93025.22;;;0.77;100.00
64402;BME280;50724;42.376;23.768;2023-11-19T04:39:39;93024.19;;;0.80;100.00
64402;BME280;50724;42.376;23.768;2023-11-19T04:42:39;93024.06;;;0.81;100.00
64402;BME280;50724;42.376;23.768;2023-11-19T04:45:40;93033.41;;;0.82;100.00
64402;BME280;50724;42.376;23.768;2023-11-19T04:48:41;93041.94;;;0.83;100.00
64402;BME280;50724;42.376;23.768;2023-11-19T04:51:42;93037.84;;;0.80;100.00
64402;BME280;50724;42.376;23.768;2023-11-19T04:54:43;93041.03;;;0.84;100.00
64402;BME280;50724;42.376;23.768;2023-11-19T04:57:44;93050.50;;;0.83;100.00
64402;BME280;50724;42.376;23.768;2023-11-19T05:00:44;93035.88;;;0.84;100.00
64402;BME280;50724;42.376;23.768;2023-11-19T05:03:45;93040.91;;;0.85;100.00
64402;BME280;50724;42.376;23.768;2023-11-19T05:06:46;93030.53;;;0.87;100.00
64402;BME280;50724;42.376;23.768;2023-11-19T05:09:46;93041.72;;;0.86;100.00
64402;BME280;50724;42.376;23.768;2023-11-19T05:12:46;93045.00;;;0.88;100.00
64402;BME280;50724;42.376;23.768;2023-11-19T05:15:47;93042.56;;;0.86;100.00
64402;BME280;50724;42.376;23.768;2023-11-19T05:18:47;93053.69;;;0.87;100.00
64402;BME280;50724;42.376;23.768;2023-11-19T05:21:48;93056.97;;;0.89;100.00
64402;BME280;50724;42.376;23.768;2023-11-19T05:24:52;93060.66;;;0.85;100.00
64402;BME280;50724;42.376;23.768;2023-11-19T05:27:53;93060.13;;;0.92;100.00
64402;BME280;50724;42.376;23.768;2023-11-19T05:30:54;93069.22;;;0.85;100.00
64402;BME280;50724;42.376;23.768;2023-11-19T05:33:55;93049.47;;;0.86;100.00
64402;BME280;50724;42.376;23.768;2023-11-19T05:36:55;93067.59;;;0.84;100.00
64402;BME280;50724;42.376;23.768;2023-11-19T05:39:57;93065.81;;;0.85;100.00
64402;BME280;50724;42.376;23.768;2023-11-19T05:43:00;93061.41;;;0.87;100.00
64402;BME280;50724;42.376;23.768;2023-11-19T05:46:00;93059.63;;;0.87;100.00
64402;BME280;50724;42.376;23.768;2023-11-19T05:49:01;93049.47;;;0.86;100.00
64402;BME280;50724;42.376;23.768;2023-11-19T05:52:10;93053.69;;;0.87;100.00
64402;BME280;50724;42.376;23.768;2023-11-19T05:55:12;93047.91;;;0.83;100.00
64402;BME280;50724;42.376;23.768;2023-11-19T05:58:14;93074.88;;;0.90;100.00
64402;BME280;50724;42.376;23.768;2023-11-19T06:01:15;93070.44;;;0.92;100.00
64402;BME280;50724;42.376;23.768;2023-11-19T06:04:15;93088.22;;;0.95;100.00
64402;BME280;50724;42.376;23.768;2023-11-19T06:07:16;93081.56;;;0.93;100.00
64402;BME280;50724;42.376;23.768;2023-11-19T06:10:16;93084.13;;;0.93;100.00
64402;BME280;50724;42.376;23.768;2023-11-19T06:13:17;93086.81;;;0.91;100.00
64402;BME280;50724;42.376;23.768;2023-11-19T06:16:17;93098.31;;;0.98;99.84
64402;BME280;50724;42.376;23.768;2023-11-19T06:19:18;93110.91;;;0.90;98.99
64402;BME280;50724;42.376;23.768;2023-11-19T06:22:18;93120.88;;;0.95;98.94
64402;BME280;50724;42.376;23.768;2023-11-19T06:25:19;93118.09;;;0.98;99.67
64402;BME280;50724;42.376;23.768;2023-11-19T06:28:19;93120.44;;;1.01;99.31
64402;BME280;50724;42.376;23.768;2023-11-19T06:31:20;93116.94;;;1.02;98.23
64402;BME280;50724;42.376;23.768;2023-11-19T06:34:20;93093.06;;;1.00;98.25
64402;BME280;50724;42.376;23.768;2023-11-19T06:37:22;93114.47;;;1.00;98.44
64402;BME280;50724;42.376;23.768;2023-11-19T06:40:23;93114.34;;;1.02;97.97
64402;BME280;50724;42.376;23.768;2023-11-19T06:43:24;93116.94;;;1.02;98.30
64402;BME280;50724;42.376;23.768;2023-11-19T06:46:24;93117.88;;;1.01;98.39
64402;BME280;50724;42.376;23.768;2023-11-19T06:49:24;93108.16;;;1.04;98.59
64402;BME280;50724;42.376;23.768;2023-11-19T06:52:25;93114.53;;;1.11;98.58
64402;BME280;50724;42.376;23.768;2023-11-19T06:55:28;93116.19;;;1.12;98.08
64402;BME280;50724;42.376;23.768;2023-11-19T06:58:29;93124.50;;;1.16;98.38
64402;BME280;50724;42.376;23.768;2023-11-19T07:01:34;93136.38;;;1.06;97.76
64402;BME280;50724;42.376;23.768;2023-11-19T07:04:36;93133.72;;;1.07;98.46
64402;BME280;50724;42.376;23.768;2023-11-19T07:07:37;93118.00;;;1.10;98.50
64402;BME280;50724;42.376;23.768;2023-11-19T07:10:37;93140.56;;;1.19;98.60
64402;BME280;50724;42.376;23.768;2023-11-19T07:13:39;93139.22;;;1.14;99.04
64402;BME280;50724;42.376;23.768;2023-11-19T07:16:41;93146.84;;;1.15;98.75
64402;BME280;50724;42.376;23.768;2023-11-19T07:19:53;93137.84;;;1.21;98.78
64402;BME280;50724;42.376;23.768;2023-11-19T07:22:54;93135.75;;;1.15;99.01
64402;BME280;50724;42.376;23.768;2023-11-19T07:25:57;93137.81;;;1.10;98.71
64402;BME280;50724;42.376;23.768;2023-11-19T07:28:57;93142.72;;;1.13;98.86
64402;BME280;50724;42.376;23.768;2023-11-19T07:31:58;93155.72;;;1.11;98.80
64402;BME280;50724;42.376;23.768;2023-11-19T07:34:58;93162.25;;;1.04;98.27
64402;BME280;50724;42.376;23.768;2023-11-19T07:38:07;93162.03;;;1.07;99.42
64402;BME280;50724;42.376;23.768;2023-11-19T07:41:08;93174.25;;;1.16;98.78
64402;BME280;50724;42.376;23.768;2023-11-19T07:44:12;93167.78;;;1.11;99.00
64402;BME280;50724;42.376;23.768;2023-11-19T07:47:13;93169.06;;;1.05;98.71
64402;BME280;50724;42.376;23.768;2023-11-19T07:50:13;93172.41;;;1.06;98.52
64402;BME280;50724;42.376;23.768;2023-11-19T07:53:17;93174.41;;;1.02;99.04
64402;BME280;50724;42.376;23.768;2023-11-19T07:56:17;93167.38;;;1.04;97.91
64402;BME280;50724;42.376;23.768;2023-11-19T07:59:17;93185.56;;;0.90;98.83
64402;BME280;50724;42.376;23.768;2023-11-19T08:02:18;93179.75;;;0.99;99.81
64402;BME280;50724;42.376;23.768;2023-11-19T08:05:19;93166.94;;;0.87;98.48
64402;BME280;50724;42.376;23.768;2023-11-19T08:08:19;93171.16;;;0.88;98.52
64402;BME280;50724;42.376;23.768;2023-11-19T08:11:20;93184.47;;;0.82;99.04
64402;BME280;50724;42.376;23.768;2023-11-19T08:14:20;93182.47;;;0.85;99.39
64402;BME280;50724;42.376;23.768;2023-11-19T08:17:20;93186.91;;;0.83;98.74
64402;BME280;50724;42.376;23.768;2023-11-19T08:20:23;93189.69;;;0.93;98.69
64402;BME280;50724;42.376;23.768;2023-11-19T08:23:24;93197.19;;;0.96;98.49
64402;BME280;50724;42.376;23.768;2023-11-19T08:26:25;93195.31;;;0.98;98.01
64402;BME280;50724;42.376;23.768;2023-11-19T08:29:26;93209.75;;;1.00;96.83
64402;BME280;50724;42.376;23.768;2023-11-19T08:32:27;93209.13;;;0.97;96.99
64402;BME280;50724;42.376;23.768;2023-11-19T08:35:29;93206.47;;;0.98;96.54
64402;BME280;50724;42.376;23.768;2023-11-19T08:38:30;93200.72;;;1.18;96.73
64402;BME280;50724;42.376;23.768;2023-11-19T08:41:30;93189.22;;;1.35;95.96
64402;BME280;50724;42.376;23.768;2023-11-19T08:44:31;93185.22;;;1.31;94.97
64402;BME280;50724;42.376;23.768;2023-11-19T08:47:31;93190.78;;;1.25;94.12
64402;BME280;50724;42.376;23.768;2023-11-19T08:50:31;93202.81;;;1.37;93.75
64402;BME280;50724;42.376;23.768;2023-11-19T08:53:32;93201.97;;;1.36;93.68
64402;BME280;50724;42.376;23.768;2023-11-19T08:56:33;93212.28;;;1.36;93.08
64402;BME280;50724;42.376;23.768;2023-11-19T08:59:35;93205.16;;;1.40;92.97
64402;BME280;50724;42.376;23.768;2023-11-19T09:02:37;93196.97;;;1.46;92.53
64402;BME280;50724;42.376;23.768;2023-11-19T09:05:38;93205.53;;;1.47;92.27
64402;BME280;50724;42.376;23.768;2023-11-19T09:08:38;93219.50;;;1.55;92.58
64402;BME280;50724;42.376;23.768;2023-11-19T09:11:39;93226.16;;;1.70;92.75
64402;BME280;50724;42.376;23.768;2023-11-19T09:14:40;93198.84;;;1.68;91.68
64402;BME280;50724;42.376;23.768;2023-11-19T09:17:49;93199.81;;;1.78;91.85
64402;BME280;50724;42.376;23.768;2023-11-19T09:20:49;93190.16;;;2.03;89.56
64402;BME280;50724;42.376;23.768;2023-11-19T09:23:50;93199.31;;;2.07;88.17
64402;BME280;50724;42.376;23.768;2023-11-19T09:26:51;93190.19;;;2.26;88.21
64402;BME280;50724;42.376;23.768;2023-11-19T09:29:51;93163.34;;;2.39;88.17
64402;BME280;50724;42.376;23.768;2023-11-19T09:32:57;93171.47;;;3.22;88.38
64402;BME280;50724;42.376;23.768;2023-11-19T09:35:58;93172.69;;;3.49;81.78
64402;BME280;50724;42.376;23.768;2023-11-19T09:38:58;93193.31;;;3.72;79.89
64402;BME280;50724;42.376;23.768;2023-11-19T09:42:00;93187.59;;;3.14;79.29
64402;BME280;50724;42.376;23.768;2023-11-19T09:45:02;93177.19;;;2.60;80.73
64402;BME280;50724;42.376;23.768;2023-11-19T09:48:10;93175.19;;;2.97;80.37
64402;BME280;50724;42.376;23.768;2023-11-19T09:51:12;93175.69;;;3.34;79.89
64402;BME280;50724;42.376;23.768;2023-11-19T09:54:12;93183.78;;;3.40;79.42
64402;BME280;50724;42.376;23.768;2023-11-19T09:57:15;93190.53;;;3.10;79.75
64402;BME280;50724;42.376;23.768;2023-11-19T10:00:19;93186.25;;;2.88;80.15
64402;BME280;50724;42.376;23.768;2023-11-19T10:03:22;93194.69;;;2.46;81.09
64402;BME280;50724;42.376;23.768;2023-11-19T10:06:24;93176.84;;;2.76;81.14
64402;BME280;50724;42.376;23.768;2023-11-19T10:09:27;93138.94;;;2.65;80.17
64402;BME280;50724;42.376;23.768;2023-11-19T10:12:28;93168.50;;;2.72;81.08
64402;BME280;50724;42.376;23.768;2023-11-19T10:15:35;93168.84;;;3.01;81.47
64402;BME280;50724;42.376;23.768;2023-11-19T10:18:36;93120.41;;;3.14;77.81
64402;BME280;50724;42.376;23.768;2023-11-19T10:21:38;93136.03;;;3.56;77.25
64402;BME280;50724;42.376;23.768;2023-11-19T10:24:38;93129.94;;;3.45;76.55
64402;BME280;50724;42.376;23.768;2023-11-19T10:27:41;93117.56;;;3.81;76.21
64402;BME280;50724;42.376;23.768;2023-11-19T10:30:41;93105.44;;;3.61;75.34
64402;BME280;50724;42.376;23.768;2023-11-19T10:33:42;93124.09;;;3.85;76.39
64402;BME280;50724;42.376;23.768;2023-11-19T10:36:45;93130.47;;;4.01;75.33
64402;BME280;50724;42.376;23.768;2023-11-19T10:39:52;93121.22;;;4.20;74.29
64402;BME280;50724;42.376;23.768;2023-11-19T10:43:02;93129.03;;;4.08;74.23
64402;BME280;50724;42.376;23.768;2023-11-19T10:46:13;93126.16;;;4.32;73.44
64402;BME280;50724;42.376;23.768;2023-11-19T10:49:14;93125.72;;;4.48;74.12
64402;BME280;50724;42.376;23.768;2023-11-19T10:52:18;93112.34;;;4.43;70.55
64402;BME280;50724;42.376;23.768;2023-11-19T10:55:28;93116.63;;;4.33;72.10
64402;BME280;50724;42.376;23.768;2023-11-19T10:58:32;93120.25;;;4.51;70.96
64402;BME280;50724;42.376;23.768;2023-11-19T11:01:44;93120.06;;;4.33;72.16
64402;BME280;50724;42.376;23.768;2023-11-19T11:04:47;93119.63;;;4.28;70.90
64402;BME280;50724;42.376;23.768;2023-11-19T11:07:49;93117.44;;;4.03;70.45
64402;BME280;50724;42.376;23.768;2023-11-19T11:10:55;93094.41;;;4.00;71.32
64402;BME280;50724;42.376;23.768;2023-11-19T11:13:59;93103.88;;;4.41;71.41
64402;BME280;50724;42.376;23.768;2023-11-19T11:17:02;93097.72;;;4.42;70.98
64402;BME280;50724;42.376;23.768;2023-11-19T11:20:03;93101.75;;;4.25;70.69
64402;BME280;50724;42.376;23.768;2023-11-19T11:23:30;93099.19;;;4.04;71.40
64402;BME280;50724;42.376;23.768;2023-11-19T11:26:53;93098.28;;;4.36;70.64
64402;BME280;50724;42.376;23.768;2023-11-19T11:30:02;93098.81;;;4.39;69.10
64402;BME280;50724;42.376;23.768;2023-11-19T11:33:41;93090.16;;;4.20;68.78
64402;BME280;50724;42.376;23.768;2023-11-19T11:36:47;93081.25;;;4.43;69.97
64402;BME280;50724;42.376;23.768;2023-11-19T11:39:50;93087.66;;;4.48;69.43
64402;BME280;50724;42.376;23.768;2023-11-19T11:42:50;93091.56;;;4.33;69.12
64402;BME280;50724;42.376;23.768;2023-11-19T11:45:52;93092.91;;;4.28;68.97
64402;BME280;50724;42.376;23.768;2023-11-19T11:48:52;93084.97;;;4.50;68.31
64402;BME280;50724;42.376;23.768;2023-11-19T11:52:02;93086.22;;;4.65;68.61
64402;BME280;50724;42.376;23.768;2023-11-19T11:55:06;93078.56;;;4.54;66.99
64402;BME280;50724;42.376;23.768;2023-11-19T11:58:09;93080.22;;;4.64;66.68
64402;BME280;50724;42.376;23.768;2023-11-19T12:01:14;93079.22;;;4.46;66.55
64402;BME280;50724;42.376;23.768;2023-11-19T12:04:20;93079.47;;;4.43;66.68
64402;BME280;50724;42.376;23.768;2023-11-19T12:07:22;93082.22;;;4.91;65.76
64402;BME280;50724;42.376;23.768;2023-11-19T12:10:24;93077.72;;;4.93;64.98
64402;BME280;50724;42.376;23.768;2023-11-19T12:13:28;93069.72;;;4.56;65.40
64402;BME280;50724;42.376;23.768;2023-11-19T12:16:43;93083.22;;;4.30;66.63
64402;BME280;50724;42.376;23.768;2023-11-19T12:19:43;93073.38;;;4.54;66.23
64402;BME280;50724;42.376;23.768;2023-11-19T12:22:46;93086.19;;;4.55;65.94
64402;BME280;50724;42.376;23.768;2023-11-19T12:25:47;93083.25;;;4.69;65.05
64402;BME280;50724;42.376;23.768;2023-11-19T12:28:57;93071.59;;;4.45;65.21
64402;BME280;50724;42.376;23.768;2023-11-19T12:31:58;93063.09;;;4.73;66.42
64402;BME280;50724;42.376;23.768;2023-11-19T12:35:03;93046.97;;;4.69;64.01
64402;BME280;50724;42.376;23.768;2023-11-19T12:38:03;93043.16;;;4.64;64.55
64402;BME280;50724;42.376;23.768;2023-11-19T12:41:09;93046.59;;;4.74;64.70
64402;BME280;50724;42.376;23.768;2023-11-19T12:44:13;93046.31;;;4.77;64.18
64402;BME280;50724;42.376;23.768;2023-11-19T12:47:13;93026.81;;;4.63;65.25
64402;BME280;50724;42.376;23.768;2023-11-19T12:50:23;93031.31;;;4.61;64.81
64402;BME280;50724;42.376;23.768;2023-11-19T12:53:24;93023.94;;;4.76;63.50
64402;BME280;50724;42.376;23.768;2023-11-19T12:56:25;93023.78;;;4.58;64.20
64402;BME280;50724;42.376;23.768;2023-11-19T12:59:26;93025.19;;;4.81;63.07
64402;BME280;50724;42.376;23.768;2023-11-19T13:02:47;93004.84;;;4.67;63.36
64402;BME280;50724;42.376;23.768;2023-11-19T13:05:48;93001.72;;;4.83;62.89
64402;BME280;50724;42.376;23.768;2023-11-19T13:08:49;93001.34;;;4.78;63.00
64402;BME280;50724;42.376;23.768;2023-11-19T13:11:53;93007.47;;;4.86;63.10
64402;BME280;50724;42.376;23.768;2023-11-19T13:14:54;93017.41;;;4.72;63.46
64402;BME280;50724;42.376;23.768;2023-11-19T13:17:54;93014.28;;;4.68;64.12
64402;BME280;50724;42.376;23.768;2023-11-19T13:21:04;93009.09;;;4.68;63.86
64402;BME280;50724;42.376;23.768;2023-11-19T13:24:06;93014.13;;;4.60;64.27
64402;BME280;50724;42.376;23.768;2023-11-19T13:27:07;93009.44;;;4.45;63.99
64402;BME280;50724;42.376;23.768;2023-11-19T13:30:08;93015.84;;;4.50;63.99
64402;BME280;50724;42.376;23.768;2023-11-19T13:33:08;93004.41;;;4.53;64.02
64402;BME280;50724;42.376;23.768;2023-11-19T13:36:12;93001.16;;;4.60;64.24
64402;BME280;50724;42.376;23.768;2023-11-19T13:39:13;92997.06;;;4.58;64.61
64402;BME280;50724;42.376;23.768;2023-11-19T13:42:15;92995.47;;;4.66;64.94
64402;BME280;50724;42.376;23.768;2023-11-19T13:45:16;92997.09;;;4.67;64.83
64402;BME280;50724;42.376;23.768;2023-11-19T13:48:18;92983.72;;;4.62;63.85
64402;BME280;50724;42.376;23.768;2023-11-19T13:51:18;92976.47;;;4.47;64.34
64402;BME280;50724;42.376;23.768;2023-11-19T13:54:19;92983.44;;;4.56;65.09
64402;BME280;50724;42.376;23.768;2023-11-19T13:57:30;92986.59;;;4.59;65.01
64402;BME280;50724;42.376;23.768;2023-11-19T14:00:31;92982.19;;;4.50;64.50
64402;BME280;50724;42.376;23.768;2023-11-19T14:03:32;92984.78;;;4.41;63.49
64402;BME280;50724;42.376;23.768;2023-11-19T14:06:33;92989.66;;;4.34;64.60
64402;BME280;50724;42.376;23.768;2023-11-19T14:09:34;92986.78;;;4.28;64.04
64402;BME280;50724;42.376;23.768;2023-11-19T14:12:35;93001.41;;;4.38;63.48
64402;BME280;50724;42.376;23.768;2023-11-19T14:15:36;92998.81;;;4.38;62.58
64402;BME280;50724;42.376;23.768;2023-11-19T14:18:37;93009.28;;;4.37;62.37
64402;BME280;50724;42.376;23.768;2023-11-19T14:21:38;93015.81;;;4.31;62.90
64402;BME280;50724;42.376;23.768;2023-11-19T14:24:38;93023.00;;;4.28;63.15
64402;BME280;50724;42.376;23.768;2023-11-19T14:27:43;93026.94;;;4.22;62.84
64402;BME280;50724;42.376;23.768;2023-11-19T14:30:43;93035.91;;;4.18;62.70
64402;BME280;50724;42.376;23.768;2023-11-19T14:33:45;93043.81;;;4.16;62.81
64402;BME280;50724;42.376;23.768;2023-11-19T14:36:46;93052.09;;;4.10;62.71
64402;BME280;50724;42.376;23.768;2023-11-19T14:39:47;93051.78;;;4.04;62.15
64402;BME280;50724;42.376;23.768;2023-11-19T14:42:47;93045.25;;;4.00;61.79
64402;BME280;50724;42.376;23.768;2023-11-19T14:45:48;93058.41;;;3.97;62.12
64402;BME280;50724;42.376;23.768;2023-11-19T14:48:48;93061.53;;;3.91;62.38
64402;BME280;50724;42.376;23.768;2023-11-19T14:51:49;93060.03;;;3.88;62.77
64402;BME280;50724;42.376;23.768;2023-11-19T14:54:50;93057.94;;;3.82;62.76
64402;BME280;50724;42.376;23.768;2023-11-19T14:57:54;93054.22;;;3.75;62.85
64402;BME280;50724;42.376;23.768;2023-11-19T15:00:54;93044.84;;;3.74;62.97
64402;BME280;50724;42.376;23.768;2023-11-19T15:03:55;93048.50;;;3.72;62.72
64402;BME280;50724;42.376;23.768;2023-11-19T15:06:59;93044.25;;;3.71;62.79
64402;BME280;50724;42.376;23.768;2023-11-19T15:10:00;93045.69;;;3.64;63.33
64402;BME280;50724;42.376;23.768;2023-11-19T15:13:01;93048.66;;;3.59;63.81
64402;BME280;50724;42.376;23.768;2023-11-19T15:16:01;93047.16;;;3.57;63.91
64402;BME280;50724;42.376;23.768;2023-11-19T15:19:02;93061.88;;;3.56;64.01
64402;BME280;50724;42.376;23.768;2023-11-19T15:22:05;93059.53;;;3.53;64.17
64402;BME280;50724;42.376;23.768;2023-11-19T15:25:06;93044.41;;;3.48;64.43
64402;BME280;50724;42.376;23.768;2023-11-19T15:28:10;93056.94;;;3.53;64.42
64402;BME280;50724;42.376;23.768;2023-11-19T15:31:10;93026.06;;;3.52;64.45
64402;BME280;50724;42.376;23.768;2023-11-19T15:34:11;93046.34;;;3.56;63.99
64402;BME280;50724;42.376;23.768;2023-11-19T15:37:11;93046.34;;;3.56;63.45
64402;BME280;50724;42.376;23.768;2023-11-19T15:40:14;93045.59;;;3.65;62.38
64402;BME280;50724;42.376;23.768;2023-11-19T15:43:14;93067.47;;;3.61;62.21
64402;BME280;50724;42.376;23.768;2023-11-19T15:46:15;93069.19;;;3.72;61.13
64402;BME280;50724;42.376;23.768;2023-11-19T15:49:16;93065.69;;;3.82;59.76
64402;BME280;50724;42.376;23.768;2023-11-19T15:52:16;93070.63;;;3.85;59.35
64402;BME280;50724;42.376;23.768;2023-11-19T15:55:17;93049.19;;;3.74;60.05
64402;BME280;50724;42.376;23.768;2023-11-19T15:58:19;93052.97;;;3.70;60.50
64402;BME280;50724;42.376;23.768;2023-11-19T16:01:19;93058.91;;;3.61;61.33
64402;BME280;50724;42.376;23.768;2023-11-19T16:04:20;93053.72;;;3.61;61.24